Time;durP1;ratioP1;P1;durP2;ratioP2;P2;SDS_P1;SDS_P2;PMS_P1;PMS_P2;Temp;Humidity;BMP_temperature;BMP_pressure;BME280_temperature;BME280_humidity;BME280_pressure;Samples;Min_cycle;Max_cycle;Signal;HPM_P1;HPM_P2
2022/12/15 00:38:42;;;;;;;11.02;7.90;;;21.80;55.90;;;;;;5045588;28;20673;-38
2022/12/15 00:41:09;;;;;;;9.70;7.50;;;21.80;55.80;;;;;;5048961;28;20219;-36
2022/12/15 00:43:36;;;;;;;8.50;7.00;;;21.70;55.80;;;;;;5050082;28;20198;-40
2022/12/15 00:48:48;;;;;;;8.60;6.75;;;21.70;55.90;;;;;;5049159;28;20240;-38
2022/12/15 00:51:15;;;;;;;10.57;8.50;;;21.70;55.80;;;;;;5043618;28;20206;-41
2022/12/15 01:21:12;;;;;;;10.10;7.43;;;21.60;55.70;;;;;;5048184;28;20203;-36
2022/12/15 01:23:41;;;;;;;9.15;7.03;;;21.70;55.70;;;;;;5048236;28;20288;-35
2022/12/15 01:26:09;;;;;;;8.23;6.55;;;21.60;55.70;;;;;;5048966;28;20612;-34
2022/12/15 01:28:36;;;;;;;7.68;6.72;;;21.70;55.60;;;;;;5050939;28;20210;-36
2022/12/15 01:31:10;;;;;;;7.72;6.63;;;21.60;55.70;;;;;;5046450;28;20203;-36
2022/12/15 01:33:37;;;;;;;7.50;6.80;;;21.60;55.80;;;;;;5050416;28;20571;-37
2022/12/15 01:36:04;;;;;;;9.40;6.82;;;21.60;55.70;;;;;;5047809;28;20567;-34
2022/12/15 01:38:30;;;;;;;8.13;6.80;;;21.60;55.70;;;;;;5045767;28;20553;-36
2022/12/15 01:40:59;;;;;;;9.70;7.30;;;21.60;55.70;;;;;;5047734;28;20196;-37
2022/12/15 01:43:30;;;;;;;9.25;7.25;;;21.60;55.70;;;;;;5044052;28;20200;-34
2022/12/15 01:46:01;;;;;;;7.93;6.20;;;21.60;55.70;;;;;;5048699;28;20204;-36
2022/12/15 01:48:38;;;;;;;9.05;7.50;;;21.50;55.70;;;;;;5048142;28;20199;-36
2022/12/15 01:51:19;;;;;;;7.00;6.40;;;21.60;55.80;;;;;;5045236;28;20211;-36
2022/12/15 01:53:53;;;;;;;7.57;5.93;;;21.60;55.70;;;;;;5044157;28;20197;-39
2022/12/15 01:56:22;;;;;;;9.52;7.05;;;21.50;55.70;;;;;;5047862;28;20685;-37
2022/12/15 01:58:52;;;;;;;8.82;5.97;;;21.50;55.80;;;;;;5048957;28;20222;-38
2022/12/15 02:01:19;;;;;;;8.30;7.47;;;21.50;55.70;;;;;;5041904;28;20247;-37
2022/12/15 02:03:47;;;;;;;8.20;7.40;;;21.60;55.70;;;;;;5046963;28;20207;-36
2022/12/15 02:06:15;;;;;;;6.63;5.97;;;21.50;55.70;;;;;;5048455;28;20222;-36
2022/12/15 02:08:45;;;;;;;6.40;5.80;;;21.60;55.60;;;;;;5044951;28;20192;-41
2022/12/15 02:11:42;;;;;;;8.15;7.35;;;21.60;55.60;;;;;;5048938;28;20192;-37
2022/12/15 02:14:11;;;;;;;7.45;5.40;;;21.60;55.60;;;;;;5042926;28;20207;-38
2022/12/15 02:17:01;;;;;;;8.90;7.63;;;21.50;55.60;;;;;;5049290;28;20190;-35
2022/12/15 02:19:48;;;;;;;7.20;6.50;;;21.50;55.50;;;;;;5051621;28;20235;-41
2022/12/15 02:22:27;;;;;;;6.78;6.20;;;21.50;55.50;;;;;;5054620;28;20207;-36
2022/12/15 02:25:39;;;;;;;6.40;5.80;;;21.50;55.50;;;;;;5044685;28;20655;-38
2022/12/15 02:28:09;;;;;;;9.40;6.15;;;21.50;55.60;;;;;;5017530;28;20195;-35
2022/12/15 02:30:43;;;;;;;5.90;5.40;;;21.50;55.60;;;;;;5047644;28;20195;-42
2022/12/15 02:33:17;;;;;;;6.78;6.28;;;21.50;55.50;;;;;;5036110;28;20199;-40
2022/12/15 02:35:56;;;;;;;7.90;6.88;;;21.50;55.40;;;;;;5052134;28;20194;-37
2022/12/15 02:38:31;;;;;;;6.40;5.80;;;21.60;55.50;;;;;;5042535;28;20224;-33
2022/12/15 02:40:59;;;;;;;6.57;5.90;;;21.50;55.40;;;;;;5047061;28;20331;-36
2022/12/15 02:43:27;;;;;;;6.90;5.60;;;21.50;55.40;;;;;;5045924;28;20196;-37
2022/12/15 02:46:08;;;;;;;7.45;6.45;;;21.50;55.40;;;;;;5045536;28;20647;-32
2022/12/15 02:48:47;;;;;;;7.00;6.05;;;21.50;55.50;;;;;;5046771;28;20208;-34
2022/12/15 02:51:29;;;;;;;7.22;6.20;;;21.50;55.40;;;;;;5047638;28;20217;-35
2022/12/15 02:54:14;;;;;;;6.75;6.05;;;21.50;55.40;;;;;;5035788;28;20194;-35
2022/12/15 02:56:47;;;;;;;7.15;6.53;;;21.50;55.40;;;;;;5045839;28;20205;-39
2022/12/15 02:59:20;;;;;;;8.68;6.30;;;21.60;55.30;;;;;;5050147;28;20219;-34
2022/12/15 03:01:53;;;;;;;6.55;5.30;;;21.60;55.30;;;;;;5046813;28;20199;-36
2022/12/15 03:04:20;;;;;;;6.78;5.95;;;21.60;55.30;;;;;;5043300;28;20203;-35
2022/12/15 03:06:55;;;;;;;9.43;6.38;;;21.60;55.20;;;;;;5047465;28;20203;-34
2022/12/15 03:09:21;;;;;;;7.43;6.72;;;21.60;55.20;;;;;;5045485;28;20207;-34
2022/12/15 03:11:48;;;;;;;6.97;6.28;;;21.50;55.20;;;;;;5048104;28;20246;-42
2022/12/15 03:14:15;;;;;;;6.20;5.60;;;21.50;55.80;;;;;;5047159;28;20219;-39
2022/12/15 03:16:42;;;;;;;6.05;5.18;;;21.50;55.20;;;;;;5051711;28;20671;-38
2022/12/15 03:19:10;;;;;;;5.78;5.22;;;21.50;55.20;;;;;;5042572;28;20235;-37
2022/12/15 03:21:36;;;;;;;6.15;5.55;;;21.60;55.30;;;;;;5047225;28;20199;-36
2022/12/15 03:24:03;;;;;;;6.70;6.03;;;21.50;55.20;;;;;;5047075;28;20191;-39
2022/12/15 03:26:30;;;;;;;6.75;5.65;;;21.50;55.10;;;;;;5049045;28;20199;-37
2022/12/15 03:28:56;;;;;;;6.20;5.60;;;21.60;55.10;;;;;;5051606;28;20211;-34
2022/12/15 03:31:23;;;;;;;6.25;5.65;;;21.50;55.10;;;;;;5051096;28;20656;-40
2022/12/15 03:33:50;;;;;;;5.78;5.15;;;21.60;55.10;;;;;;5052577;28;20199;-36
2022/12/15 03:36:18;;;;;;;6.30;5.50;;;21.50;55.10;;;;;;5049516;28;20206;-35
2022/12/15 03:38:45;;;;;;;6.32;5.72;;;21.50;55.10;;;;;;5051744;28;20218;-33
2022/12/15 03:41:11;;;;;;;7.65;5.63;;;21.50;55.20;;;;;;5054289;28;20199;-37
2022/12/15 03:43:38;;;;;;;6.50;5.50;;;21.50;55.10;;;;;;5052568;28;20191;-36
2022/12/15 03:46:05;;;;;;;5.45;5.03;;;21.50;55.10;;;;;;5050436;28;20204;-35
2022/12/15 03:48:32;;;;;;;7.65;6.40;;;21.50;55.10;;;;;;5051102;28;20199;-40
2022/12/15 03:50:58;;;;;;;6.07;5.53;;;21.50;55.10;;;;;;5053037;28;20196;-33
2022/12/15 03:53:26;;;;;;;6.03;5.53;;;21.50;55.00;;;;;;5048026;28;20200;-37
2022/12/15 03:55:53;;;;;;;6.75;5.88;;;21.60;55.10;;;;;;5052534;28;20200;-32
2022/12/15 03:58:20;;;;;;;7.25;5.38;;;21.60;55.00;;;;;;5054696;28;20211;-37
2022/12/15 04:00:47;;;;;;;5.72;5.22;;;21.50;55.00;;;;;;5051614;28;20203;-36
2022/12/15 04:03:14;;;;;;;7.57;5.55;;;21.60;54.90;;;;;;5047649;28;20210;-35
2022/12/15 04:05:41;;;;;;;5.85;5.20;;;21.60;55.00;;;;;;5054913;28;20289;-33
2022/12/15 04:08:08;;;;;;;5.50;4.80;;;21.50;55.00;;;;;;5048762;28;20216;-37
2022/12/15 04:10:36;;;;;;;5.53;4.93;;;21.50;55.00;;;;;;5046688;28;20200;-34
2022/12/15 04:13:04;;;;;;;6.90;5.93;;;21.50;55.00;;;;;;5049049;28;20199;-34
2022/12/15 04:15:31;;;;;;;7.95;6.00;;;21.60;55.00;;;;;;5050231;28;20675;-35
2022/12/15 04:17:58;;;;;;;6.10;5.25;;;21.60;55.00;;;;;;5050043;28;20205;-40
2022/12/15 04:20:25;;;;;;;6.10;5.50;;;21.50;54.90;;;;;;5048147;28;20321;-34
2022/12/15 04:22:52;;;;;;;5.55;5.05;;;21.50;55.00;;;;;;5053445;28;20204;-36
2022/12/15 05:31:59;;;;;;;4.85;4.32;;;21.60;54.60;;;;;;5052557;28;20226;-38
2022/12/15 05:34:30;;;;;;;5.88;5.30;;;21.50;54.60;;;;;;5052004;28;20206;-38
2022/12/15 05:36:59;;;;;;;5.57;5.07;;;21.50;54.80;;;;;;5048605;28;20199;-36
2022/12/15 05:39:26;;;;;;;6.25;5.50;;;21.40;54.90;;;;;;5048936;28;20225;-38
2022/12/15 05:41:55;;;;;;;4.75;4.35;;;21.40;54.90;;;;;;5048297;28;20616;-36
2022/12/15 05:44:22;;;;;;;5.40;4.80;;;21.40;55.00;;;;;;5051116;28;20200;-42
2022/12/15 05:46:49;;;;;;;4.75;4.35;;;21.30;55.00;;;;;;5049882;28;20199;-35
2022/12/15 05:49:17;;;;;;;4.90;4.50;;;21.30;55.10;;;;;;5062130;28;20210;-33
2022/12/15 05:51:47;;;;;;;5.40;4.47;;;21.20;55.10;;;;;;5045383;28;20198;-42
2022/12/15 05:54:16;;;;;;;4.95;4.55;;;21.20;55.20;;;;;;5047117;28;20202;-41
2022/12/15 05:56:43;;;;;;;4.43;4.05;;;21.10;55.20;;;;;;5045892;28;20195;-37
2022/12/15 05:59:09;;;;;;;4.75;4.18;;;21.10;55.20;;;;;;5049106;28;20215;-34
2022/12/15 06:01:36;;;;;;;4.93;4.43;;;21.00;55.30;;;;;;5047938;28;20199;-38
2022/12/15 06:04:04;;;;;;;4.45;3.90;;;21.00;55.40;;;;;;5052692;28;20663;-35
2022/12/15 06:06:30;;;;;;;4.60;3.97;;;21.00;55.40;;;;;;5048604;28;20199;-36
2022/12/15 06:08:58;;;;;;;5.35;4.85;;;21.00;55.40;;;;;;5050308;28;20203;-37
2022/12/15 06:11:25;;;;;;;5.15;4.65;;;21.00;55.40;;;;;;5042414;28;20206;-40
2022/12/15 06:13:54;;;;;;;5.18;4.68;;;21.00;55.50;;;;;;5047174;28;20187;-36
2022/12/15 06:16:24;;;;;;;5.60;4.93;;;20.90;55.50;;;;;;5046768;28;20215;-42
2022/12/15 06:18:54;;;;;;;4.32;3.92;;;21.00;55.40;;;;;;5049316;28;20191;-36
2022/12/15 06:21:23;;;;;;;4.90;4.50;;;21.20;55.20;;;;;;5044568;28;20202;-34
2022/12/15 06:23:50;;;;;;;4.20;3.80;;;21.30;55.10;;;;;;5050843;28;20192;-41
2022/12/15 06:26:20;;;;;;;5.45;4.20;;;21.30;55.50;;;;;;5045995;28;20212;-37
2022/12/15 06:28:48;;;;;;;4.47;4.07;;;21.40;54.90;;;;;;5050073;28;20785;-33
2022/12/15 06:31:15;;;;;;;4.95;4.45;;;21.40;54.90;;;;;;5047892;28;20195;-37
2022/12/15 06:33:42;;;;;;;4.88;4.38;;;21.40;54.80;;;;;;5046575;28;20187;-37
2022/12/15 06:36:10;;;;;;;4.75;4.25;;;21.40;54.80;;;;;;5045680;28;20196;-36
2022/12/15 06:38:37;;;;;;;4.30;3.90;;;21.40;54.80;;;;;;5041564;28;20201;-35
2022/12/15 06:41:06;;;;;;;4.55;4.15;;;21.50;54.90;;;;;;5044123;28;20242;-38
2022/12/15 06:43:34;;;;;;;4.45;4.05;;;21.50;54.80;;;;;;5046355;28;20205;-39
2022/12/15 06:46:01;;;;;;;4.22;3.83;;;21.50;54.90;;;;;;5043477;28;20211;-38
2022/12/15 06:48:29;;;;;;;4.43;4.03;;;21.50;54.80;;;;;;5044888;28;20272;-38
2022/12/15 06:50:55;;;;;;;3.92;3.63;;;21.50;54.80;;;;;;5044756;28;20700;-37
2022/12/15 06:53:24;;;;;;;3.80;3.28;;;21.50;54.90;;;;;;5049337;28;20195;-36
2022/12/15 06:55:51;;;;;;;3.95;3.65;;;21.50;54.90;;;;;;5043810;28;20212;-37
2022/12/15 06:58:17;;;;;;;3.85;3.45;;;21.50;54.80;;;;;;5047175;28;20678;-36
2022/12/15 07:00:46;;;;;;;4.60;4.10;;;21.50;54.80;;;;;;5047403;28;20243;-35
2022/12/15 07:03:14;;;;;;;3.70;3.40;;;21.50;54.90;;;;;;5053158;28;20232;-33
2022/12/15 07:05:41;;;;;;;3.95;3.55;;;21.50;54.90;;;;;;5048016;28;20218;-38
2022/12/15 07:08:09;;;;;;;4.10;3.72;;;21.40;54.80;;;;;;5054815;28;20201;-33
2022/12/15 07:10:38;;;;;;;4.15;3.78;;;21.40;54.90;;;;;;5050912;28;20199;-35
2022/12/15 07:13:05;;;;;;;4.03;3.63;;;21.50;55.00;;;;;;5047198;28;20261;-37
2022/12/15 07:15:32;;;;;;;4.47;4.07;;;21.50;54.90;;;;;;5050424;28;20195;-33
2022/12/15 07:18:00;;;;;;;3.80;3.50;;;21.40;54.80;;;;;;5053497;28;20199;-35
2022/12/15 07:20:27;;;;;;;4.43;4.03;;;21.40;55.00;;;;;;5044184;28;20719;-35
2022/12/15 07:22:54;;;;;;;3.22;2.92;;;21.40;55.00;;;;;;5051312;28;20683;-32
2022/12/15 07:25:21;;;;;;;3.58;3.25;;;21.40;54.90;;;;;;5050979;28;20207;-33
2022/12/15 07:27:48;;;;;;;3.60;3.30;;;21.40;55.00;;;;;;5047908;28;20567;-34
2022/12/15 07:30:16;;;;;;;3.33;3.03;;;21.40;55.00;;;;;;5056248;28;20199;-33
2022/12/15 07:32:43;;;;;;;4.97;4.28;;;21.40;54.90;;;;;;5054355;28;20191;-33
2022/12/15 07:35:12;;;;;;;4.68;4.28;;;21.30;54.90;;;;;;5049408;28;20285;-34
2022/12/15 07:37:39;;;;;;;3.95;3.55;;;21.30;55.00;;;;;;5050506;28;20673;-32
2022/12/15 07:40:07;;;;;;;3.80;3.47;;;21.40;55.00;;;;;;5051316;28;20289;-38
2022/12/15 07:42:33;;;;;;;4.03;3.70;;;21.30;55.00;;;;;;5046408;28;20295;-32
2022/12/15 07:45:00;;;;;;;5.35;3.83;;;21.30;55.10;;;;;;5052066;28;20203;-34
2022/12/15 07:47:27;;;;;;;3.60;3.30;;;21.30;55.10;;;;;;5051675;28;20196;-33
2022/12/15 07:49:54;;;;;;;4.10;3.70;;;21.30;55.10;;;;;;5053910;28;20223;-35
2022/12/15 07:52:23;;;;;;;4.30;3.88;;;21.30;55.00;;;;;;5053054;28;20275;-33
2022/12/15 07:54:49;;;;;;;3.67;3.38;;;21.30;55.10;;;;;;5051652;28;20192;-34
2022/12/15 07:57:16;;;;;;;3.30;3.08;;;21.30;55.10;;;;;;5047657;28;20269;-37
2022/12/15 07:59:43;;;;;;;3.70;3.40;;;21.30;55.00;;;;;;5051757;28;20218;-34
2022/12/15 08:02:10;;;;;;;3.63;2.90;;;21.20;55.10;;;;;;5051144;28;20196;-38
2022/12/15 08:04:37;;;;;;;3.80;3.50;;;21.30;55.00;;;;;;5052146;28;20196;-33
2022/12/15 08:07:04;;;;;;;3.95;3.55;;;21.30;55.00;;;;;;5047999;28;20211;-37
2022/12/15 08:09:32;;;;;;;4.18;3.33;;;21.10;55.00;;;;;;5048855;28;20198;-33
2022/12/15 08:11:59;;;;;;;3.30;3.00;;;21.20;55.00;;;;;;5047190;28;20283;-33
2022/12/15 08:14:27;;;;;;;3.53;3.22;;;21.00;55.00;;;;;;5057167;28;20562;-34
2022/12/15 08:16:54;;;;;;;3.45;2.83;;;20.90;55.20;;;;;;5047976;28;20191;-36
2022/12/15 08:19:21;;;;;;;4.47;3.33;;;20.70;55.30;;;;;;5045434;28;20228;-34
2022/12/15 08:21:48;;;;;;;3.15;2.95;;;20.60;55.50;;;;;;5050226;28;20200;-33
2022/12/15 08:24:16;;;;;;;4.10;3.60;;;20.50;55.70;;;;;;5047062;28;20211;-37
2022/12/15 08:26:44;;;;;;;4.40;4.00;;;20.30;56.00;;;;;;5047829;28;20199;-40
2022/12/15 08:29:12;;;;;;;4.60;3.50;;;20.10;56.10;;;;;;5051616;28;20575;-36
2022/12/15 08:31:39;;;;;;;3.83;3.20;;;20.10;56.30;;;;;;5049330;28;20210;-35
2022/12/15 08:34:06;;;;;;;3.47;3.17;;;20.30;56.50;;;;;;5050088;28;20196;-41
2022/12/15 08:36:33;;;;;;;3.30;3.00;;;20.70;56.10;;;;;;5049557;28;20206;-36
2022/12/15 08:39:01;;;;;;;3.45;3.15;;;21.10;55.60;;;;;;5059288;28;20205;-33
2022/12/15 08:41:30;;;;;;;3.88;3.58;;;21.30;55.20;;;;;;5051025;28;20218;-42
2022/12/15 08:43:59;;;;;;;4.50;4.10;;;21.60;54.70;;;;;;5041866;28;20660;-33
2022/12/15 08:46:27;;;;;;;3.45;3.15;;;21.80;54.50;;;;;;5056875;28;20198;-33
2022/12/15 08:48:54;;;;;;;3.10;2.80;;;22.00;54.20;;;;;;5051802;28;20201;-33
2022/12/15 08:51:24;;;;;;;3.50;3.20;;;22.00;54.20;;;;;;5048305;28;20207;-38
2022/12/15 08:53:50;;;;;;;3.60;3.30;;;22.00;54.10;;;;;;5049674;28;20598;-36
2022/12/15 08:56:19;;;;;;;3.55;3.25;;;22.00;54.20;;;;;;5048502;28;20578;-36
2022/12/15 08:58:47;;;;;;;3.58;3.17;;;22.10;54.20;;;;;;5051613;28;20211;-37
2022/12/15 09:01:17;;;;;;;4.50;3.33;;;22.20;54.00;;;;;;5048652;28;20570;-36
2022/12/15 09:03:44;;;;;;;3.28;2.97;;;22.10;54.10;;;;;;5051820;28;20191;-36
2022/12/15 09:06:14;;;;;;;3.33;3.03;;;22.10;54.10;;;;;;5045507;28;20686;-34
2022/12/15 09:08:41;;;;;;;3.25;2.95;;;22.10;54.50;;;;;;5045520;28;20195;-37
2022/12/15 09:11:08;;;;;;;4.93;4.43;;;22.20;54.00;;;;;;5050201;28;20570;-33
2022/12/15 09:13:35;;;;;;;2.90;2.55;;;22.10;54.00;;;;;;5051981;28;20199;-33
2022/12/15 09:16:05;;;;;;;3.25;2.95;;;22.10;54.10;;;;;;5049454;28;20199;-34
2022/12/15 09:18:34;;;;;;;4.45;3.15;;;21.90;54.20;;;;;;5053559;28;20229;-37
2022/12/15 09:21:01;;;;;;;3.13;2.80;;;21.90;54.40;;;;;;5048874;28;20219;-32
2022/12/15 09:23:29;;;;;;;3.08;2.88;;;21.80;54.30;;;;;;5051293;28;20228;-33
2022/12/15 09:26:00;;;;;;;3.10;2.80;;;21.80;54.30;;;;;;5044985;28;20231;-33
2022/12/15 09:28:27;;;;;;;3.28;2.97;;;21.70;54.50;;;;;;5046909;28;20283;-32
2022/12/15 09:30:54;;;;;;;3.53;3.22;;;21.50;54.80;;;;;;5045912;28;20215;-37
2022/12/15 09:33:21;;;;;;;3.47;3.10;;;21.40;55.50;;;;;;5042210;28;20196;-38
2022/12/15 09:35:53;;;;;;;4.95;3.58;;;21.60;55.20;;;;;;5045810;28;20478;-35
2022/12/15 09:38:19;;;;;;;4.28;3.00;;;21.60;55.40;;;;;;5043816;28;20273;-33
2022/12/15 09:40:46;;;;;;;4.78;4.38;;;21.70;55.30;;;;;;5048427;28;20231;-37
2022/12/15 09:43:18;;;;;;;8.05;3.40;;;21.70;55.30;;;;;;5037452;28;20464;-32
2022/12/15 09:45:50;;;;;;;4.45;3.00;;;21.60;55.50;;;;;;5050513;28;20207;-34
2022/12/15 09:48:21;;;;;;;4.00;3.05;;;21.50;55.80;;;;;;5055078;28;20250;-35
2022/12/15 09:50:50;;;;;;;2.97;2.60;;;21.40;55.90;;;;;;5049067;28;20215;-32
2022/12/15 09:53:19;;;;;;;3.10;2.80;;;21.40;56.00;;;;;;5049230;28;20703;-33
2022/12/15 09:56:02;;;;;;;3.85;3.28;;;21.30;56.10;;;;;;5049144;28;20195;-33
2022/12/15 09:58:41;;;;;;;5.55;3.30;;;21.30;56.10;;;;;;5048652;28;20201;-34
2022/12/15 10:01:17;;;;;;;3.28;2.97;;;21.30;56.10;;;;;;5052240;28;20218;-35
2022/12/15 10:03:55;;;;;;;3.70;3.40;;;21.40;56.00;;;;;;5057261;28;20199;-34
2022/12/15 10:06:26;;;;;;;2.83;2.60;;;21.30;55.90;;;;;;5042909;28;20203;-32
2022/12/15 10:08:58;;;;;;;3.58;3.28;;;21.30;56.10;;;;;;5043493;28;20198;-36
2022/12/15 10:11:39;;;;;;;3.38;2.95;;;21.30;56.10;;;;;;5056973;28;20195;-37
2022/12/15 10:14:14;;;;;;;3.33;3.03;;;21.30;56.10;;;;;;5044109;28;20203;-32
2022/12/15 10:16:50;;;;;;;6.18;3.35;;;21.30;56.10;;;;;;5052351;28;20203;-33
2022/12/15 10:19:23;;;;;;;3.85;3.45;;;21.30;56.00;;;;;;5051415;28;20211;-39
2022/12/15 10:21:50;;;;;;;3.97;3.67;;;21.30;55.90;;;;;;5047534;28;20223;-34
2022/12/15 10:24:20;;;;;;;3.92;3.20;;;21.40;55.90;;;;;;5054127;28;20191;-35
2022/12/15 10:26:53;;;;;;;3.30;2.60;;;21.40;56.00;;;;;;5043730;28;20203;-36
2022/12/15 10:29:31;;;;;;;3.20;2.90;;;21.30;55.80;;;;;;5050948;28;20652;-35
2022/12/15 10:32:01;;;;;;;4.10;3.40;;;21.30;55.80;;;;;;5049561;28;20254;-32
2022/12/15 10:34:30;;;;;;;4.05;3.28;;;21.40;55.80;;;;;;5034548;28;20198;-34
2022/12/15 10:36:57;;;;;;;3.38;3.17;;;21.40;55.80;;;;;;5043900;28;20231;-32
2022/12/15 10:39:38;;;;;;;3.78;3.45;;;21.30;55.70;;;;;;5034903;28;20196;-33
2022/12/15 10:42:13;;;;;;;3.20;2.90;;;21.30;55.80;;;;;;5040025;28;20293;-33
2022/12/15 10:44:42;;;;;;;4.70;3.50;;;21.30;55.70;;;;;;5049489;28;20269;-33
2022/12/15 10:47:11;;;;;;;3.10;2.80;;;21.30;55.80;;;;;;5050471;28;20199;-33
2022/12/15 10:49:37;;;;;;;3.28;3.00;;;21.30;55.70;;;;;;5041686;28;20195;-35
2022/12/15 10:52:05;;;;;;;5.05;2.78;;;21.20;55.70;;;;;;5048798;28;20717;-34
2022/12/15 10:54:36;;;;;;;3.75;3.10;;;21.30;55.80;;;;;;5046117;28;20664;-37
2022/12/15 10:57:16;;;;;;;3.13;2.75;;;21.20;55.50;;;;;;5044279;28;20587;-37
2022/12/15 10:59:43;;;;;;;5.45;3.15;;;21.30;55.70;;;;;;5054656;28;20195;-33
2022/12/15 11:02:32;;;;;;;3.75;3.40;;;21.60;55.40;;;;;;5042921;28;20225;-34
2022/12/15 11:05:01;;;;;;;5.38;3.63;;;21.70;55.10;;;;;;5046303;28;20200;-33
2022/12/15 11:07:35;;;;;;;3.05;2.85;;;21.50;55.50;;;;;;5050536;28;20241;-34
2022/12/15 11:10:15;;;;;;;3.28;2.97;;;21.40;55.60;;;;;;5050729;28;20203;-34
2022/12/15 11:12:51;;;;;;;3.92;3.50;;;21.40;55.60;;;;;;5041359;28;20195;-36
2022/12/15 11:15:40;;;;;;;3.38;3.03;;;21.40;55.70;;;;;;5047367;28;20195;-32
2022/12/15 11:18:25;;;;;;;3.53;3.20;;;21.40;55.70;;;;;;5050381;28;20200;-37
2022/12/15 11:20:58;;;;;;;3.78;3.10;;;21.40;55.70;;;;;;5044010;28;20223;-34
2022/12/15 11:23:41;;;;;;;3.15;2.85;;;21.40;55.60;;;;;;5043792;28;20198;-36
2022/12/15 11:26:22;;;;;;;3.42;2.60;;;21.40;55.60;;;;;;5037233;28;20592;-36
2022/12/15 11:28:54;;;;;;;4.00;3.08;;;21.40;56.10;;;;;;5048252;28;20200;-33
2022/12/15 11:31:27;;;;;;;4.00;3.25;;;21.40;55.50;;;;;;5045907;28;20567;-37
2022/12/15 11:33:54;;;;;;;2.50;2.28;;;21.40;55.50;;;;;;5041511;28;20201;-36
2022/12/15 11:36:42;;;;;;;4.93;2.75;;;21.40;55.30;;;;;;5050275;28;20199;-32
2022/12/15 11:39:19;;;;;;;3.30;3.00;;;21.40;55.40;;;;;;5043243;28;20243;-33
2022/12/15 11:41:53;;;;;;;3.53;3.20;;;21.40;55.20;;;;;;5043056;28;20207;-36
2022/12/15 11:44:27;;;;;;;3.22;3.03;;;21.50;55.80;;;;;;5047739;28;20207;-37
2022/12/15 11:47:05;;;;;;;3.40;3.15;;;21.50;55.10;;;;;;5048549;28;20192;-32
2022/12/15 11:49:55;;;;;;;8.43;3.05;;;21.50;55.10;;;;;;5051829;28;20670;-34
2022/12/15 11:52:53;;;;;;;3.75;3.45;;;21.50;55.10;;;;;;5048602;28;20220;-37
2022/12/15 11:55:29;;;;;;;3.03;2.72;;;21.50;55.00;;;;;;5023668;28;20215;-37
2022/12/15 11:58:18;;;;;;;3.20;2.90;;;21.60;55.70;;;;;;5049365;28;20203;-38
2022/12/15 12:00:55;;;;;;;4.50;4.10;;;22.10;55.00;;;;;;5047887;28;20218;-35
2022/12/15 12:03:32;;;;;;;7.72;4.07;;;22.60;54.50;;;;;;5053075;28;20226;-35
2022/12/15 12:06:11;;;;;;;7.05;2.78;;;22.80;54.80;;;;;;5052934;28;20203;-35
2022/12/15 12:09:02;;;;;;;6.13;4.15;;;22.90;54.70;;;;;;5053484;28;20248;-32
2022/12/15 12:11:36;;;;;;;15.05;4.22;;;22.90;54.70;;;;;;5045701;28;20222;-32
2022/12/15 12:14:17;;;;;;;9.77;3.70;;;22.80;54.90;;;;;;5053651;28;20196;-32
2022/12/15 12:16:51;;;;;;;5.95;3.15;;;23.00;55.00;;;;;;5048584;28;20196;-32
2022/12/15 12:19:21;;;;;;;7.47;2.58;;;23.10;54.90;;;;;;5048518;28;20576;-32
2022/12/15 12:21:49;;;;;;;5.88;3.35;;;23.20;55.00;;;;;;5045204;28;20231;-33
2022/12/15 12:24:21;;;;;;;4.80;3.08;;;23.30;55.10;;;;;;5050347;28;20204;-32
2022/12/15 12:26:54;;;;;;;10.10;8.05;;;23.40;55.40;;;;;;5042003;28;20200;-45
2022/12/15 12:29:29;;;;;;;15.52;11.82;;;24.10;46.50;;;;;;5044105;28;20211;-43
2022/12/15 12:32:02;;;;;;;16.55;11.93;;;23.30;41.10;;;;;;5047679;28;20235;-43
2022/12/15 12:34:38;;;;;;;14.40;12.05;;;22.40;38.60;;;;;;5046467;28;20192;-44
2022/12/15 12:37:22;;;;;;;14.23;12.48;;;22.20;38.40;;;;;;5055631;28;20590;-44
2022/12/15 12:39:50;;;;;;;14.88;12.27;;;20.80;37.00;;;;;;5045123;28;20210;-41
2022/12/15 12:42:22;;;;;;;12.07;10.77;;;20.00;37.60;;;;;;5044821;28;20211;-37
2022/12/15 12:44:51;;;;;;;11.30;8.35;;;20.00;41.30;;;;;;5042287;28;20212;-36
2022/12/15 12:47:24;;;;;;;8.48;7.32;;;20.70;43.60;;;;;;5047506;28;20678;-36
2022/12/15 12:49:55;;;;;;;9.02;8.13;;;21.30;44.30;;;;;;5050100;28;20278;-38
2022/12/15 12:52:24;;;;;;;9.65;6.78;;;21.80;45.10;;;;;;5046866;28;20203;-38
2022/12/15 12:54:57;;;;;;;8.40;6.35;;;22.10;45.60;;;;;;5057240;28;20199;-41
2022/12/15 12:57:32;;;;;;;5.75;5.00;;;22.30;46.10;;;;;;5045419;28;20203;-41
2022/12/15 13:00:03;;;;;;;6.50;5.78;;;22.40;46.60;;;;;;5048312;28;20203;-41
2022/12/15 13:03:16;;;;;;;6.63;5.07;;;22.60;47.00;;;;;;5048757;28;20226;-36
2022/12/15 13:05:45;;;;;;;6.95;4.72;;;22.70;47.40;;;;;;5044894;28;20282;-35
2022/12/15 13:08:47;;;;;;;4.78;4.38;;;22.70;47.80;;;;;;5048034;28;20203;-38
2022/12/15 13:11:54;;;;;;;5.50;5.00;;;22.70;48.20;;;;;;5045913;28;20873;-37
2022/12/15 13:14:25;;;;;;;5.50;4.45;;;22.60;48.60;;;;;;5010830;28;20192;-39
2022/12/15 13:17:01;;;;;;;5.15;3.50;;;22.50;49.30;;;;;;5046005;28;20198;-38
2022/12/15 13:20:01;;;;;;;4.10;3.63;;;22.30;49.60;;;;;;5047369;28;20210;-40
2022/12/15 13:22:33;;;;;;;6.03;4.07;;;22.20;49.80;;;;;;5042554;28;20218;-39
2022/12/15 13:25:01;;;;;;;4.28;3.42;;;22.20;50.00;;;;;;5046401;28;20195;-40
2022/12/15 13:27:35;;;;;;;4.20;3.80;;;22.30;50.30;;;;;;5049304;28;20201;-43
2022/12/15 13:30:14;;;;;;;4.25;3.85;;;22.50;50.30;;;;;;5046224;28;20191;-41
2022/12/15 13:32:46;;;;;;;5.05;4.05;;;22.70;50.40;;;;;;5050009;28;20203;-39
2022/12/15 13:35:22;;;;;;;4.80;3.78;;;22.70;50.40;;;;;;5046422;28;20616;-40
2022/12/15 13:37:52;;;;;;;4.20;3.03;;;22.80;50.50;;;;;;5049550;28;20583;-38
2022/12/15 13:40:32;;;;;;;6.32;4.53;;;22.90;50.60;;;;;;5046645;28;20679;-39
2022/12/15 13:43:07;;;;;;;4.22;3.20;;;23.00;50.70;;;;;;5054349;28;20290;-38
2022/12/15 13:45:48;;;;;;;4.20;3.58;;;23.10;50.90;;;;;;5057743;28;20254;-42
2022/12/15 13:48:30;;;;;;;3.92;3.50;;;23.10;51.00;;;;;;5051062;28;20213;-38
2022/12/15 13:51:05;;;;;;;4.60;3.63;;;23.10;51.00;;;;;;5042706;28;20202;-39
2022/12/15 13:53:39;;;;;;;3.97;3.20;;;23.10;51.10;;;;;;5042507;28;20568;-40
2022/12/15 13:56:35;;;;;;;3.47;2.92;;;23.10;51.30;;;;;;5046593;28;20247;-37
2022/12/15 13:59:10;;;;;;;5.22;4.25;;;23.10;51.30;;;;;;5049676;28;20602;-38
2022/12/15 14:01:37;;;;;;;3.72;3.33;;;23.10;51.40;;;;;;5052583;28;20276;-40
2022/12/15 14:04:11;;;;;;;4.15;3.75;;;23.20;51.40;;;;;;5044865;28;20203;-40
2022/12/15 14:06:44;;;;;;;6.43;5.88;;;23.10;51.30;;;;;;5043226;28;20199;-35
2022/12/15 14:09:15;;;;;;;4.22;3.65;;;23.10;51.50;;;;;;5049795;28;20196;-34
2022/12/15 14:11:44;;;;;;;4.25;3.88;;;23.00;51.40;;;;;;5042401;28;20204;-43
2022/12/15 14:14:21;;;;;;;3.30;3.00;;;23.20;51.70;;;;;;5041979;28;20199;-36
2022/12/15 14:16:52;;;;;;;4.82;2.60;;;22.90;51.60;;;;;;5050007;28;20587;-37
2022/12/15 14:19:20;;;;;;;4.93;3.47;;;22.90;51.70;;;;;;5056718;28;20247;-36
2022/12/15 14:21:52;;;;;;;3.15;2.85;;;22.80;51.70;;;;;;5039022;28;20216;-39
2022/12/15 14:24:28;;;;;;;6.03;3.10;;;22.90;51.70;;;;;;5049951;28;20206;-35
2022/12/15 14:26:55;;;;;;;3.63;3.33;;;22.90;51.70;;;;;;5038067;28;20196;-33
2022/12/15 14:29:22;;;;;;;4.03;3.65;;;22.90;52.00;;;;;;5046024;28;20200;-43
2022/12/15 14:31:53;;;;;;;2.88;2.58;;;22.90;51.90;;;;;;5043851;28;20199;-36
2022/12/15 14:34:26;;;;;;;3.22;2.88;;;22.90;51.90;;;;;;5038398;28;20206;-36
2022/12/15 14:36:55;;;;;;;4.50;4.18;;;22.90;52.10;;;;;;5041299;28;20210;-36
2022/12/15 14:39:26;;;;;;;11.95;10.90;;;23.00;52.10;;;;;;5041184;28;20563;-36
2022/12/15 14:41:56;;;;;;;11.25;10.35;;;22.90;52.00;;;;;;5040692;28;20215;-35
2022/12/15 14:44:29;;;;;;;11.10;10.10;;;22.90;52.00;;;;;;5042065;28;20426;-33
2022/12/15 14:46:56;;;;;;;9.98;8.93;;;23.00;52.10;;;;;;5039048;28;20197;-37
2022/12/15 14:49:28;;;;;;;4.50;4.10;;;23.00;51.90;;;;;;5044157;28;20227;-36
2022/12/15 14:52:01;;;;;;;4.88;4.38;;;22.90;52.00;;;;;;5040291;28;20199;-34
2022/12/15 14:54:32;;;;;;;5.78;5.18;;;23.10;52.10;;;;;;5038560;28;20198;-42
2022/12/15 14:57:00;;;;;;;8.80;8.02;;;23.10;52.00;;;;;;5040768;28;20664;-36
2022/12/15 14:59:32;;;;;;;5.25;4.75;;;23.20;54.70;;;;;;5038846;28;20283;-45
2022/12/15 15:02:11;;;;;;;7.13;6.40;;;23.10;51.90;;;;;;5039868;28;20310;-35
2022/12/15 15:04:40;;;;;;;5.22;4.20;;;23.10;63.00;;;;;;5035377;28;20219;-36
2022/12/15 15:07:15;;;;;;;4.72;4.15;;;23.10;52.00;;;;;;5038405;28;20290;-34
2022/12/15 15:09:43;;;;;;;3.63;3.33;;;23.20;52.00;;;;;;5040288;28;20195;-35
2022/12/15 15:12:15;;;;;;;2.95;2.65;;;23.10;52.00;;;;;;5039892;28;20201;-36
2022/12/15 15:14:44;;;;;;;3.28;2.88;;;23.10;52.00;;;;;;5041044;28;20203;-36
2022/12/15 15:17:21;;;;;;;3.60;3.28;;;23.00;52.00;;;;;;5039390;28;20200;-44
2022/12/15 15:19:51;;;;;;;5.30;3.08;;;22.90;52.40;;;;;;5041331;28;20228;-50
2022/12/15 15:22:35;;;;;;;3.85;3.55;;;22.90;52.70;;;;;;5041548;28;20220;-39